createdAt,value
2022-11-13T00:02:12.828Z,2.00
2022-11-13T00:04:39.434Z,1.80
2022-11-13T00:07:06.097Z,1.80
2022-11-13T00:09:32.778Z,1.80
2022-11-13T00:11:59.354Z,1.80
2022-11-13T00:14:25.919Z,1.77
2022-11-13T00:16:52.495Z,2.03
2022-11-13T00:19:19.089Z,2.17
2022-11-13T00:21:45.666Z,2.20
2022-11-13T00:24:12.240Z,1.70
2022-11-13T00:26:39.717Z,1.83
2022-11-13T00:29:06.287Z,1.80
2022-11-13T00:31:32.900Z,1.80
2022-11-13T00:34:19.661Z,1.60
2022-11-13T00:36:49.037Z,2.10
2022-11-13T00:39:15.612Z,1.90
2022-11-13T00:41:42.218Z,1.53
2022-11-13T00:44:08.856Z,2.10
2022-11-13T00:46:35.435Z,1.60
2022-11-13T00:49:02.037Z,1.80
2022-11-13T00:51:28.632Z,1.80
2022-11-13T00:53:55.215Z,2.00
2022-11-13T00:56:21.826Z,1.93
2022-11-13T00:58:48.390Z,1.50
2022-11-13T01:01:17.985Z,1.70
2022-11-13T01:03:44.685Z,2.07
2022-11-13T01:06:11.421Z,2.03
2022-11-13T01:08:38.026Z,1.70
2022-11-13T01:11:12.275Z,1.80
2022-11-13T01:13:40.309Z,1.80
2022-11-13T01:16:08.179Z,1.83
2022-11-13T01:18:35.138Z,1.67
2022-11-13T01:21:06.315Z,1.63
2022-11-13T01:23:33.203Z,1.80
2022-11-13T01:26:26.967Z,1.90
2022-11-13T01:28:53.747Z,2.13
2022-11-13T01:31:22.517Z,2.03
2022-11-13T01:33:49.260Z,1.93
2022-11-13T01:36:18.028Z,1.60
2022-11-13T01:38:44.598Z,1.73
2022-11-13T01:41:23.821Z,2.30
2022-11-13T01:43:50.841Z,1.70
2022-11-13T01:46:25.531Z,2.10
2022-11-13T01:48:57.803Z,1.93
2022-11-13T01:51:35.233Z,1.97
2022-11-13T01:54:04.178Z,1.87
2022-11-13T01:56:30.807Z,1.80
2022-11-13T01:59:01.825Z,2.00
2022-11-13T02:01:28.432Z,1.67
2022-11-13T02:03:55.026Z,1.80
2022-11-13T02:06:22.012Z,1.70
2022-11-13T02:08:49.309Z,1.50
2022-11-13T02:11:15.878Z,1.80
2022-11-13T02:13:42.438Z,1.77
2022-11-13T02:16:09.330Z,1.80
2022-11-13T02:18:36.694Z,1.80
2022-11-13T02:21:15.876Z,1.63
2022-11-13T02:24:00.272Z,1.53
2022-11-13T02:26:26.848Z,1.60
2022-11-13T02:28:53.420Z,1.80
2022-11-13T02:31:19.991Z,1.80
2022-11-13T02:33:46.589Z,1.80
2022-11-13T02:36:13.193Z,1.60
2022-11-13T02:38:39.838Z,2.10
2022-11-13T02:41:06.419Z,1.90
2022-11-13T02:43:33.023Z,1.90
2022-11-13T02:45:59.598Z,1.60
2022-11-13T02:48:26.424Z,1.90
2022-11-13T02:50:53.454Z,2.13
2022-11-13T02:53:20.065Z,2.37
2022-11-13T02:55:46.632Z,1.87
2022-11-13T02:58:13.434Z,1.63
2022-11-13T03:00:40.048Z,1.70
2022-11-13T03:03:06.621Z,1.87
2022-11-13T03:05:33.186Z,2.20
2022-11-13T03:07:59.756Z,1.90
2022-11-13T03:10:26.439Z,1.97
2022-11-13T03:12:53.086Z,1.90
2022-11-13T03:15:19.754Z,1.87
2022-11-13T03:17:46.355Z,1.87
2022-11-13T03:20:12.952Z,1.43
2022-11-13T03:22:39.694Z,1.80
2022-11-13T03:25:10.521Z,2.20
2022-11-13T03:27:37.672Z,1.87
2022-11-13T03:30:05.911Z,1.93
2022-11-13T03:32:32.494Z,1.90
2022-11-13T03:34:59.150Z,2.10
2022-11-13T03:37:25.859Z,1.63
2022-11-13T03:39:52.429Z,1.90
2022-11-13T03:42:19.067Z,1.60
2022-11-13T03:44:45.625Z,1.80
2022-11-13T03:47:12.217Z,1.60
2022-11-13T03:49:38.779Z,1.47
2022-11-13T03:52:05.376Z,1.73
2022-11-13T03:54:31.947Z,1.80
2022-11-13T03:56:58.548Z,1.50
2022-11-13T03:59:25.127Z,1.67
2022-11-13T04:01:51.914Z,1.53
2022-11-13T04:04:18.610Z,1.67
2022-11-13T04:06:45.244Z,1.77
2022-11-13T04:09:11.869Z,1.60
2022-11-13T04:11:38.437Z,1.50
2022-11-13T04:14:05.017Z,1.90
2022-11-13T04:16:31.602Z,1.90
2022-11-13T04:18:58.175Z,1.70
2022-11-13T04:21:24.755Z,1.70
2022-11-13T04:23:51.381Z,1.80
2022-11-13T04:26:18.412Z,1.77
2022-11-13T04:28:44.998Z,1.57
2022-11-13T04:31:11.561Z,1.50
2022-11-13T04:33:40.831Z,1.60
2022-11-13T04:36:07.594Z,1.90
2022-11-13T04:38:34.167Z,1.57
2022-11-13T04:41:19.159Z,1.90
2022-11-13T04:43:45.729Z,1.70
2022-11-13T04:46:12.302Z,1.60
2022-11-13T04:48:38.894Z,1.80
2022-11-13T04:51:05.677Z,1.80
2022-11-13T04:53:32.249Z,1.73
2022-11-13T04:55:58.855Z,1.60
2022-11-13T04:58:25.647Z,1.60
2022-11-13T05:00:52.404Z,1.47
2022-11-13T05:03:18.983Z,1.53
2022-11-13T05:05:45.546Z,1.50
2022-11-13T05:08:12.730Z,1.70
2022-11-13T05:10:39.317Z,1.60
2022-11-13T05:13:05.901Z,1.83
2022-11-13T05:15:32.503Z,1.50
2022-11-13T05:17:59.119Z,1.60
2022-11-13T05:20:25.686Z,1.30
2022-11-13T05:22:52.257Z,1.53
2022-11-13T05:25:18.838Z,1.83
2022-11-13T05:27:45.397Z,1.53
2022-11-13T05:30:12.070Z,1.60
2022-11-13T05:32:38.625Z,1.40
2022-11-13T05:35:05.386Z,1.37
2022-11-13T05:37:31.952Z,1.70
2022-11-13T05:39:58.518Z,1.43
2022-11-13T05:42:25.093Z,1.80
2022-11-13T05:44:51.674Z,1.40
2022-11-13T05:47:18.239Z,1.70
2022-11-13T05:49:44.807Z,1.40
2022-11-13T05:52:11.375Z,1.40
2022-11-13T05:54:37.950Z,1.27
2022-11-13T05:57:04.521Z,1.43
2022-11-13T05:59:31.455Z,1.63
2022-11-13T06:01:58.077Z,1.40
2022-11-13T06:04:24.797Z,1.50
2022-11-13T06:06:52.335Z,1.50
2022-11-13T06:09:18.946Z,1.30
2022-11-13T06:11:45.572Z,1.40
2022-11-13T06:14:12.175Z,1.50
2022-11-13T06:16:38.865Z,1.20
2022-11-13T06:19:07.086Z,1.50
2022-11-13T06:21:34.954Z,1.67
2022-11-13T06:24:01.758Z,1.57
2022-11-13T06:26:30.162Z,1.70
2022-11-13T06:28:56.925Z,1.43
2022-11-13T06:31:25.393Z,1.77
2022-11-13T06:33:52.043Z,1.60
2022-11-13T06:36:23.263Z,1.40
2022-11-13T06:38:49.969Z,1.70
2022-11-13T06:41:18.579Z,1.40
2022-11-13T06:43:45.238Z,1.40
2022-11-13T06:46:16.473Z,1.73
2022-11-13T06:48:43.161Z,1.40
2022-11-13T06:51:14.255Z,1.67
2022-11-13T06:53:40.845Z,1.70
2022-11-13T06:56:07.819Z,1.60
2022-11-13T06:58:34.497Z,1.57
2022-11-13T07:01:08.410Z,1.87
2022-11-13T07:03:35.292Z,1.40
2022-11-13T07:06:03.803Z,1.37
2022-11-13T07:08:30.787Z,1.40
2022-11-13T07:10:57.659Z,1.50
2022-11-13T07:13:24.299Z,1.40
2022-11-13T07:15:50.881Z,1.50
2022-11-13T07:18:22.869Z,1.37
2022-11-13T07:20:50.531Z,1.30
2022-11-13T07:23:17.101Z,1.53
2022-11-13T07:25:43.679Z,1.47
2022-11-13T07:28:10.256Z,1.50
2022-11-13T07:30:36.835Z,1.80
2022-11-13T07:33:04.155Z,1.70
2022-11-13T07:35:30.911Z,1.90
2022-11-13T07:37:58.029Z,1.50
2022-11-13T07:40:24.715Z,1.50
2022-11-13T07:42:59.044Z,1.70
2022-11-13T07:45:25.814Z,1.83
2022-11-13T07:47:52.400Z,2.80
2022-11-13T07:50:19.050Z,2.93
2022-11-13T07:52:45.614Z,3.17
2022-11-13T07:55:12.222Z,4.70
2022-11-13T07:57:38.792Z,4.87
2022-11-13T08:00:05.894Z,3.77
2022-11-13T08:02:32.454Z,3.80
2022-11-13T08:04:59.044Z,3.30
2022-11-13T08:07:25.638Z,3.10
2022-11-13T08:09:52.279Z,3.10
2022-11-13T08:12:18.850Z,3.07
2022-11-13T08:14:45.428Z,3.10
2022-11-13T08:17:11.995Z,2.80
2022-11-13T08:19:38.572Z,3.03
2022-11-13T08:22:05.151Z,2.83
2022-11-13T08:24:31.728Z,2.50
2022-11-13T08:26:58.326Z,2.67
2022-11-13T08:29:24.926Z,2.50
2022-11-13T08:31:51.542Z,2.67
2022-11-13T08:34:18.132Z,2.73
2022-11-13T08:36:44.721Z,3.20
2022-11-13T08:39:11.298Z,2.50
2022-11-13T08:41:37.882Z,2.70
2022-11-13T08:44:04.629Z,2.80
2022-11-13T08:46:31.219Z,2.87
2022-11-13T08:48:57.832Z,2.80
2022-11-13T08:51:24.448Z,2.60
2022-11-13T08:53:51.019Z,2.60
2022-11-13T08:56:17.647Z,2.80
2022-11-13T08:58:44.215Z,2.70
2022-11-13T09:01:10.814Z,2.90
2022-11-13T09:03:37.446Z,2.23
2022-11-13T09:06:07.779Z,2.70
2022-11-13T09:08:34.410Z,2.93
2022-11-13T09:11:05.073Z,2.83
2022-11-13T09:13:32.679Z,4.10
2022-11-13T09:16:02.359Z,3.73
2022-11-13T09:18:29.501Z,3.60
2022-11-13T09:21:00.644Z,3.23
2022-11-13T09:23:28.680Z,3.00
2022-11-13T09:25:55.271Z,3.20
2022-11-13T09:28:21.850Z,2.77
2022-11-13T09:30:48.426Z,3.10
2022-11-13T09:33:15.399Z,3.83
2022-11-13T09:35:43.395Z,3.33
2022-11-13T09:38:11.943Z,2.90
2022-11-13T09:41:07.985Z,2.87
2022-11-13T09:43:54.115Z,3.37
2022-11-13T09:46:43.774Z,3.07
2022-11-13T09:49:15.909Z,3.17
2022-11-13T09:51:55.769Z,3.30
2022-11-13T09:54:22.474Z,3.57
2022-11-13T09:57:06.005Z,3.37
2022-11-13T09:59:37.177Z,2.87
2022-11-13T10:02:25.631Z,3.30
2022-11-13T10:05:17.165Z,2.90
2022-11-13T10:08:07.935Z,3.30
2022-11-13T10:10:43.369Z,3.40
2022-11-13T10:13:31.955Z,3.27
2022-11-13T10:16:21.833Z,3.13
2022-11-13T10:18:48.747Z,3.50
2022-11-13T10:21:39.825Z,3.30
2022-11-13T10:24:18.745Z,2.60
2022-11-13T10:26:45.340Z,3.43
2022-11-13T10:29:19.370Z,3.20
2022-11-13T10:31:50.302Z,3.10
2022-11-13T10:34:17.222Z,3.30
2022-11-13T10:37:00.217Z,3.30
2022-11-13T10:39:26.786Z,3.20
2022-11-13T10:41:54.239Z,3.73
2022-11-13T10:44:26.884Z,4.03
2022-11-13T10:47:26.530Z,3.03
2022-11-13T10:50:14.931Z,3.30
2022-11-13T10:52:46.294Z,3.77
2022-11-13T10:55:15.808Z,3.30
2022-11-13T10:57:44.753Z,3.17
2022-11-13T11:00:34.809Z,3.77
2022-11-13T11:03:01.507Z,3.03
2022-11-13T11:05:28.377Z,3.00
2022-11-13T11:07:55.723Z,3.40
2022-11-13T11:10:35.006Z,3.50
2022-11-13T11:13:22.249Z,3.10
2022-11-13T11:15:54.448Z,3.60
2022-11-13T11:18:22.391Z,3.37
2022-11-13T11:20:58.881Z,3.20
2022-11-13T11:23:44.832Z,3.40
2022-11-13T11:26:18.665Z,3.40
2022-11-13T11:28:47.871Z,3.60
2022-11-13T11:31:29.044Z,3.70
2022-11-13T11:34:22.303Z,4.17
2022-11-13T11:36:51.670Z,5.50
2022-11-13T11:39:41.545Z,4.40
2022-11-13T11:42:48.082Z,5.67
2022-11-13T11:45:19.395Z,5.60
2022-11-13T11:47:46.010Z,5.20
2022-11-13T11:50:15.622Z,5.30
2022-11-13T11:52:54.418Z,4.57
2022-11-13T11:55:43.002Z,4.60
2022-11-13T11:58:31.780Z,4.50
2022-11-13T12:01:06.410Z,4.80
2022-11-13T12:04:12.074Z,4.17
2022-11-13T12:06:42.763Z,4.27
2022-11-13T12:09:30.811Z,4.23
2022-11-13T12:12:07.687Z,4.20
2022-11-13T12:14:55.891Z,3.63
2022-11-13T12:17:22.423Z,4.30
2022-11-13T12:19:51.941Z,3.77
2022-11-13T12:22:31.142Z,4.07
2022-11-13T12:25:36.264Z,3.83
2022-11-13T12:28:15.181Z,3.83
2022-11-13T12:31:22.071Z,4.40
2022-11-13T12:34:04.202Z,3.87
2022-11-13T12:36:30.778Z,3.80
2022-11-13T12:39:06.321Z,3.40
2022-11-13T12:41:35.314Z,3.67
2022-11-13T12:44:24.482Z,3.10
2022-11-13T12:46:51.511Z,3.90
2022-11-13T12:49:24.697Z,3.53
2022-11-13T12:51:55.332Z,3.40
2022-11-13T12:54:31.729Z,3.60
2022-11-13T12:57:13.403Z,3.47
2022-11-13T12:59:53.776Z,3.57
2022-11-13T13:02:37.254Z,3.53
2022-11-13T13:05:17.041Z,3.57
2022-11-13T13:08:05.242Z,3.30
2022-11-13T13:10:45.279Z,3.50
2022-11-13T13:13:30.537Z,3.40
2022-11-13T13:16:05.066Z,4.20
2022-11-13T13:18:33.607Z,3.73
2022-11-13T13:21:06.471Z,3.50
2022-11-13T13:23:36.293Z,3.33
2022-11-13T13:26:22.812Z,3.17
2022-11-13T13:28:56.925Z,3.80
2022-11-13T13:31:47.103Z,3.10
2022-11-13T13:34:38.792Z,3.40
2022-11-13T13:37:17.327Z,3.87
2022-11-13T13:39:51.420Z,3.37
2022-11-13T13:42:38.124Z,3.10
2022-11-13T13:45:30.402Z,3.20
2022-11-13T13:47:57.426Z,3.53
2022-11-13T13:50:25.727Z,3.40
2022-11-13T13:52:55.788Z,3.30
2022-11-13T13:55:34.169Z,3.53
2022-11-13T13:58:05.572Z,3.60
2022-11-13T14:00:32.432Z,3.10
2022-11-13T14:02:59.199Z,3.80
2022-11-13T14:05:30.662Z,3.60
2022-11-13T14:07:57.396Z,2.93
2022-11-13T14:10:25.453Z,3.00
2022-11-13T14:12:52.094Z,3.10
2022-11-13T14:15:23.207Z,3.17
2022-11-13T14:17:49.883Z,3.20
2022-11-13T14:20:16.753Z,3.40
2022-11-13T14:22:44.099Z,3.17
2022-11-13T14:25:19.459Z,3.00
2022-11-13T14:27:46.078Z,2.90
2022-11-13T14:30:26.472Z,3.00
2022-11-13T14:32:53.199Z,3.23
2022-11-13T14:35:21.732Z,3.00
2022-11-13T14:37:48.664Z,3.20
2022-11-13T14:40:26.134Z,3.13
2022-11-13T14:42:55.617Z,3.40
2022-11-13T14:45:23.968Z,3.57
2022-11-13T14:48:04.824Z,3.67
2022-11-13T14:50:33.816Z,4.60
2022-11-13T14:53:07.972Z,3.13
2022-11-13T14:55:38.008Z,3.03
2022-11-13T14:58:05.330Z,3.20
2022-11-13T15:00:36.043Z,3.77
2022-11-13T15:03:04.002Z,3.93
2022-11-13T15:05:30.674Z,3.30
2022-11-13T15:07:57.267Z,4.57
2022-11-13T15:10:26.266Z,3.77
2022-11-13T15:12:52.970Z,3.90
2022-11-13T15:15:26.996Z,3.50
2022-11-13T15:17:53.566Z,3.10
2022-11-13T15:20:24.747Z,3.60
2022-11-13T15:22:54.620Z,3.67
2022-11-13T15:25:22.380Z,3.63
2022-11-13T15:27:48.979Z,3.30
2022-11-13T15:30:15.631Z,3.37
2022-11-13T15:32:42.193Z,3.67
2022-11-13T15:35:16.980Z,3.20
2022-11-13T15:37:45.110Z,3.40
2022-11-13T15:40:12.837Z,3.40
2022-11-13T15:42:39.395Z,3.50
2022-11-13T15:45:06.461Z,3.10
2022-11-13T15:47:34.886Z,3.10
2022-11-13T15:50:17.006Z,3.37
2022-11-13T15:52:47.801Z,3.47
2022-11-13T15:55:24.754Z,4.00
2022-11-13T15:57:51.336Z,2.93
2022-11-13T16:00:21.280Z,3.57
2022-11-13T16:02:51.810Z,3.17
2022-11-13T16:05:18.763Z,3.40
2022-11-13T16:07:45.331Z,3.03
2022-11-13T16:10:11.907Z,3.53
2022-11-13T16:12:38.499Z,3.37
2022-11-13T16:15:05.558Z,3.53
2022-11-13T16:17:32.207Z,3.03
2022-11-13T16:19:58.783Z,3.13
2022-11-13T16:22:26.186Z,3.23
2022-11-13T16:24:52.766Z,3.17
2022-11-13T16:27:29.439Z,3.43
2022-11-13T16:29:56.068Z,3.10
2022-11-13T16:32:22.725Z,3.77
2022-11-13T16:34:49.309Z,3.87
2022-11-13T16:37:21.647Z,3.20
2022-11-13T16:39:48.378Z,3.30
2022-11-13T16:42:15.746Z,3.50
2022-11-13T16:44:42.773Z,3.50
2022-11-13T16:47:22.187Z,3.10
2022-11-13T16:49:48.962Z,3.00
2022-11-13T16:52:15.613Z,3.10
2022-11-13T16:54:42.214Z,3.63
2022-11-13T16:57:12.429Z,3.20
2022-11-13T16:59:39.229Z,2.90
2022-11-13T17:02:16.355Z,2.63
2022-11-13T17:04:43.196Z,2.73
2022-11-13T17:07:12.728Z,3.37
2022-11-13T17:09:43.325Z,2.80
2022-11-13T17:12:10.247Z,3.40
2022-11-13T17:14:37.664Z,3.10
2022-11-13T17:17:04.850Z,3.20
2022-11-13T17:19:31.534Z,2.80
2022-11-13T17:21:58.155Z,3.30
2022-11-13T17:24:24.781Z,3.03
2022-11-13T17:26:51.358Z,3.03
2022-11-13T17:29:17.986Z,3.10
2022-11-13T17:31:44.678Z,3.10
2022-11-13T17:34:11.348Z,2.50
2022-11-13T17:36:38.007Z,2.80
2022-11-13T17:39:04.593Z,2.90
2022-11-13T17:41:31.195Z,3.30
2022-11-13T17:44:01.323Z,2.73
2022-11-13T17:46:28.167Z,2.93
2022-11-13T17:48:54.765Z,3.40
2022-11-13T17:51:21.337Z,3.10
2022-11-13T17:53:47.969Z,2.73
2022-11-13T17:56:14.649Z,2.73
2022-11-13T17:58:42.336Z,3.00
2022-11-13T18:01:12.926Z,2.90
2022-11-13T18:03:39.620Z,2.70
2022-11-13T18:06:07.335Z,2.60
2022-11-13T18:08:33.956Z,3.20
2022-11-13T18:11:06.529Z,2.53
2022-11-13T18:13:33.095Z,2.80
2022-11-13T18:16:07.123Z,2.50
2022-11-13T18:18:33.696Z,2.90
2022-11-13T18:21:03.599Z,2.67
2022-11-13T18:23:40.946Z,3.90
2022-11-13T18:26:15.612Z,3.00
2022-11-13T18:28:42.287Z,2.80
2022-11-13T18:31:10.252Z,2.60
2022-11-13T18:33:36.824Z,2.83
2022-11-13T18:36:03.684Z,2.40
2022-11-13T18:38:30.281Z,2.70
2022-11-13T18:41:01.680Z,3.00
2022-11-13T18:43:28.468Z,3.10
2022-11-13T18:45:59.411Z,2.83
2022-11-13T18:48:29.303Z,2.90
2022-11-13T18:50:57.179Z,2.53
2022-11-13T18:53:23.782Z,2.63
2022-11-13T18:55:50.442Z,2.33
2022-11-13T18:58:18.019Z,2.50
2022-11-13T19:00:44.584Z,2.63
2022-11-13T19:03:11.440Z,2.50
2022-11-13T19:05:42.100Z,2.63
2022-11-13T19:08:08.675Z,2.50
2022-11-13T19:10:35.243Z,2.20
2022-11-13T19:13:02.161Z,2.80
2022-11-13T19:15:28.723Z,2.87
2022-11-13T19:17:55.313Z,2.40
2022-11-13T19:20:21.901Z,2.83
2022-11-13T19:22:48.537Z,2.23
2022-11-13T19:25:15.131Z,2.43
2022-11-13T19:27:41.711Z,2.40
2022-11-13T19:30:08.587Z,2.63
2022-11-13T19:32:35.167Z,2.67
2022-11-13T19:35:01.728Z,2.33
2022-11-13T19:37:28.326Z,2.40
2022-11-13T19:39:54.890Z,2.50
2022-11-13T19:42:21.465Z,2.60
2022-11-13T19:44:48.055Z,2.67
2022-11-13T19:47:14.633Z,2.80
2022-11-13T19:49:41.215Z,2.53
2022-11-13T19:52:07.821Z,2.20
2022-11-13T19:54:35.243Z,2.60
2022-11-13T19:57:01.851Z,2.33
2022-11-13T19:59:28.435Z,2.57
2022-11-13T20:01:55.053Z,2.20
2022-11-13T20:04:21.701Z,2.20
2022-11-13T20:06:48.313Z,2.40
2022-11-13T20:09:14.908Z,2.57
2022-11-13T20:11:41.528Z,2.30
2022-11-13T20:14:10.202Z,2.73
2022-11-13T20:16:36.783Z,2.10
2022-11-13T20:19:03.358Z,2.43
2022-11-13T20:21:31.319Z,2.53
2022-11-13T20:23:58.589Z,2.60
2022-11-13T20:26:25.371Z,2.10
2022-11-13T20:28:51.947Z,2.47
2022-11-13T20:31:20.298Z,2.17
2022-11-13T20:33:47.342Z,2.30
2022-11-13T20:36:14.206Z,2.00
2022-11-13T20:38:41.336Z,2.40
2022-11-13T20:41:09.292Z,2.43
2022-11-13T20:43:35.870Z,2.13
2022-11-13T20:46:07.952Z,2.20
2022-11-13T20:48:34.536Z,2.30
2022-11-13T20:51:21.992Z,2.10
2022-11-13T20:53:48.702Z,2.47
2022-11-13T20:56:15.313Z,2.23
2022-11-13T20:58:42.007Z,2.07
2022-11-13T21:01:22.356Z,2.43
2022-11-13T21:03:49.164Z,2.77
2022-11-13T21:06:17.458Z,2.07
2022-11-13T21:08:44.074Z,2.30
2022-11-13T21:11:22.819Z,2.00
2022-11-13T21:13:49.688Z,2.20
2022-11-13T21:16:16.642Z,2.20
2022-11-13T21:18:43.315Z,2.27
2022-11-13T21:21:14.693Z,2.40
2022-11-13T21:23:41.269Z,2.00
2022-11-13T21:26:08.156Z,2.23
2022-11-13T21:28:35.260Z,2.00
2022-11-13T21:31:06.209Z,2.20
2022-11-13T21:33:39.460Z,1.90
2022-11-13T21:36:07.480Z,2.10
2022-11-13T21:38:34.114Z,2.20
2022-11-13T21:41:23.915Z,2.10
2022-11-13T21:44:04.664Z,1.90
2022-11-13T21:46:32.700Z,2.03
2022-11-13T21:49:04.041Z,2.20
2022-11-13T21:51:31.304Z,2.00
2022-11-13T21:53:57.964Z,2.03
2022-11-13T21:56:24.970Z,2.50
2022-11-13T21:58:51.646Z,2.13
2022-11-13T22:01:18.369Z,2.20
2022-11-13T22:03:44.969Z,2.50
2022-11-13T22:06:21.513Z,2.40
2022-11-13T22:09:00.329Z,2.40
2022-11-13T22:11:29.113Z,2.20
2022-11-13T22:13:55.878Z,2.27
2022-11-13T22:16:22.971Z,2.13
2022-11-13T22:18:53.430Z,2.47
2022-11-13T22:21:20.067Z,2.30
2022-11-13T22:23:46.642Z,1.90
2022-11-13T22:26:14.543Z,2.13
2022-11-13T22:28:42.315Z,2.30
2022-11-13T22:31:14.625Z,2.17
2022-11-13T22:33:45.034Z,2.30
2022-11-13T22:36:15.682Z,2.20
2022-11-13T22:38:42.395Z,2.00
2022-11-13T22:41:23.177Z,2.10
2022-11-13T22:43:51.963Z,2.07
2022-11-13T22:46:20.055Z,2.10
2022-11-13T22:48:47.259Z,1.93
2022-11-13T22:51:18.533Z,1.83
2022-11-13T22:54:07.345Z,2.07
2022-11-13T22:56:34.268Z,2.13
2022-11-13T22:59:01.824Z,2.43
2022-11-13T23:01:29.999Z,2.03
2022-11-13T23:03:57.350Z,2.10
2022-11-13T23:06:28.623Z,2.00
2022-11-13T23:08:55.448Z,1.93
2022-11-13T23:11:31.171Z,1.90
2022-11-13T23:13:59.034Z,2.00
2022-11-13T23:16:26.500Z,2.27
2022-11-13T23:18:54.678Z,2.00
2022-11-13T23:21:21.397Z,1.90
2022-11-13T23:23:48.004Z,1.83
2022-11-13T23:26:14.865Z,2.10
2022-11-13T23:28:41.428Z,1.90
2022-11-13T23:31:08.051Z,2.20
2022-11-13T23:33:34.620Z,1.90
2022-11-13T23:36:01.322Z,2.00
2022-11-13T23:38:28.223Z,2.20
2022-11-13T23:40:55.560Z,1.73
2022-11-13T23:43:23.576Z,1.93
2022-11-13T23:45:53.461Z,2.20
2022-11-13T23:48:20.057Z,1.80
2022-11-13T23:50:46.862Z,2.20
2022-11-13T23:53:13.735Z,2.03
2022-11-13T23:55:40.866Z,1.90
2022-11-13T23:58:12.565Z,2.20
